sensor_id;sensor_type;location;lat;lon;timestamp;P1;durP1;ratioP1;P2;durP2;ratioP2
14939;SDS011;11825;51.898;8.202;2022-07-22T00:03:39;4.20;;;3.57;;
14939;SDS011;11825;51.898;8.202;2022-07-22T00:08:41;3.67;;;3.47;;
14939;SDS011;11825;51.898;8.202;2022-07-22T00:13:43;3.87;;;3.53;;
14939;SDS011;11825;51.898;8.202;2022-07-22T00:18:46;3.93;;;3.17;;
14939;SDS011;11825;51.898;8.202;2022-07-22T00:23:48;4.13;;;3.43;;
14939;SDS011;11825;51.898;8.202;2022-07-22T00:28:49;4.10;;;3.60;;
14939;SDS011;11825;51.898;8.202;2022-07-22T00:33:51;4.77;;;3.90;;
14939;SDS011;11825;51.898;8.202;2022-07-22T00:38:53;4.00;;;3.60;;
14939;SDS011;11825;51.898;8.202;2022-07-22T00:44:03;6.97;;;5.23;;
14939;SDS011;11825;51.898;8.202;2022-07-22T00:49:07;4.83;;;4.40;;
14939;SDS011;11825;51.898;8.202;2022-07-22T00:54:09;5.60;;;3.93;;
14939;SDS011;11825;51.898;8.202;2022-07-22T00:59:11;5.63;;;5.03;;
14939;SDS011;11825;51.898;8.202;2022-07-22T01:04:14;3.57;;;3.37;;
14939;SDS011;11825;51.898;8.202;2022-07-22T01:09:16;4.23;;;3.73;;
14939;SDS011;11825;51.898;8.202;2022-07-22T01:14:18;4.13;;;3.57;;
14939;SDS011;11825;51.898;8.202;2022-07-22T01:19:19;4.63;;;4.23;;
14939;SDS011;11825;51.898;8.202;2022-07-22T01:24:21;4.90;;;3.57;;
14939;SDS011;11825;51.898;8.202;2022-07-22T01:29:23;4.10;;;3.70;;
14939;SDS011;11825;51.898;8.202;2022-07-22T01:34:25;3.93;;;3.60;;
14939;SDS011;11825;51.898;8.202;2022-07-22T01:39:27;4.10;;;3.80;;
14939;SDS011;11825;51.898;8.202;2022-07-22T01:44:31;3.80;;;3.50;;
14939;SDS011;11825;51.898;8.202;2022-07-22T01:49:33;3.90;;;3.60;;
14939;SDS011;11825;51.898;8.202;2022-07-22T01:54:35;3.60;;;3.30;;
14939;SDS011;11825;51.898;8.202;2022-07-22T01:59:37;3.80;;;3.23;;
14939;SDS011;11825;51.898;8.202;2022-07-22T02:04:39;3.13;;;2.90;;
14939;SDS011;11825;51.898;8.202;2022-07-22T02:09:41;3.63;;;3.33;;
14939;SDS011;11825;51.898;8.202;2022-07-22T02:14:43;3.77;;;3.43;;
14939;SDS011;11825;51.898;8.202;2022-07-22T02:19:45;6.10;;;3.67;;
14939;SDS011;11825;51.898;8.202;2022-07-22T02:24:47;4.53;;;3.90;;
14939;SDS011;11825;51.898;8.202;2022-07-22T02:29:48;3.43;;;3.13;;
14939;SDS011;11825;51.898;8.202;2022-07-22T02:34:50;3.73;;;3.27;;
14939;SDS011;11825;51.898;8.202;2022-07-22T02:39:52;4.57;;;2.93;;
14939;SDS011;11825;51.898;8.202;2022-07-22T02:44:54;3.77;;;2.40;;
14939;SDS011;11825;51.898;8.202;2022-07-22T02:49:56;2.83;;;2.63;;
14939;SDS011;11825;51.898;8.202;2022-07-22T02:54:58;2.60;;;2.37;;
14939;SDS011;11825;51.898;8.202;2022-07-22T03:00:00;2.50;;;2.30;;
14939;SDS011;11825;51.898;8.202;2022-07-22T03:05:16;4.00;;;2.30;;
14939;SDS011;11825;51.898;8.202;2022-07-22T03:10:18;2.60;;;2.40;;
14939;SDS011;11825;51.898;8.202;2022-07-22T03:15:20;3.20;;;2.90;;
14939;SDS011;11825;51.898;8.202;2022-07-22T03:20:22;3.90;;;2.80;;
14939;SDS011;11825;51.898;8.202;2022-07-22T03:25:24;2.63;;;2.43;;
14939;SDS011;11825;51.898;8.202;2022-07-22T03:30:26;2.47;;;2.20;;
14939;SDS011;11825;51.898;8.202;2022-07-22T03:35:28;2.83;;;2.53;;
14939;SDS011;11825;51.898;8.202;2022-07-22T03:40:29;7.80;;;3.47;;
14939;SDS011;11825;51.898;8.202;2022-07-22T03:45:32;3.30;;;2.80;;
14939;SDS011;11825;51.898;8.202;2022-07-22T03:50:34;4.43;;;2.40;;
14939;SDS011;11825;51.898;8.202;2022-07-22T03:55:36;3.33;;;2.93;;
14939;SDS011;11825;51.898;8.202;2022-07-22T04:00:40;4.80;;;3.47;;
14939;SDS011;11825;51.898;8.202;2022-07-22T04:05:42;3.80;;;3.50;;
14939;SDS011;11825;51.898;8.202;2022-07-22T04:10:44;5.60;;;3.77;;
14939;SDS011;11825;51.898;8.202;2022-07-22T04:15:47;5.10;;;3.70;;
14939;SDS011;11825;51.898;8.202;2022-07-22T04:20:50;9.03;;;4.17;;
14939;SDS011;11825;51.898;8.202;2022-07-22T04:25:52;5.27;;;4.37;;
14939;SDS011;11825;51.898;8.202;2022-07-22T04:30:57;6.23;;;3.87;;
14939;SDS011;11825;51.898;8.202;2022-07-22T04:36:02;6.83;;;4.17;;
14939;SDS011;11825;51.898;8.202;2022-07-22T04:41:08;7.47;;;4.20;;
14939;SDS011;11825;51.898;8.202;2022-07-22T04:46:10;5.63;;;5.03;;
14939;SDS011;11825;51.898;8.202;2022-07-22T04:51:12;8.73;;;7.60;;
14939;SDS011;11825;51.898;8.202;2022-07-22T04:56:14;7.90;;;5.27;;
14939;SDS011;11825;51.898;8.202;2022-07-22T05:01:17;4.33;;;3.43;;
14939;SDS011;11825;51.898;8.202;2022-07-22T05:06:19;7.90;;;4.83;;
14939;SDS011;11825;51.898;8.202;2022-07-22T05:11:21;7.27;;;6.10;;
14939;SDS011;11825;51.898;8.202;2022-07-22T05:16:22;6.37;;;5.60;;
14939;SDS011;11825;51.898;8.202;2022-07-22T05:21:24;5.03;;;4.50;;
14939;SDS011;11825;51.898;8.202;2022-07-22T05:26:26;6.90;;;4.60;;
14939;SDS011;11825;51.898;8.202;2022-07-22T05:31:30;11.50;;;10.30;;
14939;SDS011;11825;51.898;8.202;2022-07-22T05:36:32;11.63;;;7.57;;
14939;SDS011;11825;51.898;8.202;2022-07-22T05:41:34;7.43;;;5.57;;
14939;SDS011;11825;51.898;8.202;2022-07-22T05:46:36;6.57;;;4.23;;
14939;SDS011;11825;51.898;8.202;2022-07-22T05:51:38;7.57;;;5.43;;
14939;SDS011;11825;51.898;8.202;2022-07-22T05:56:40;6.70;;;3.67;;
14939;SDS011;11825;51.898;8.202;2022-07-22T06:01:41;7.43;;;3.90;;
14939;SDS011;11825;51.898;8.202;2022-07-22T06:06:43;8.83;;;4.17;;
14939;SDS011;11825;51.898;8.202;2022-07-22T06:11:45;7.43;;;3.70;;
14939;SDS011;11825;51.898;8.202;2022-07-22T06:16:47;7.63;;;3.90;;
14939;SDS011;11825;51.898;8.202;2022-07-22T06:21:49;8.13;;;4.57;;
14939;SDS011;11825;51.898;8.202;2022-07-22T06:26:51;11.90;;;3.93;;
14939;SDS011;11825;51.898;8.202;2022-07-22T06:31:53;7.30;;;4.27;;
14939;SDS011;11825;51.898;8.202;2022-07-22T06:36:56;10.33;;;5.00;;
14939;SDS011;11825;51.898;8.202;2022-07-22T06:41:58;10.90;;;4.93;;
14939;SDS011;11825;51.898;8.202;2022-07-22T06:47:00;6.83;;;4.43;;
14939;SDS011;11825;51.898;8.202;2022-07-22T06:52:02;7.00;;;4.50;;
14939;SDS011;11825;51.898;8.202;2022-07-22T06:57:04;9.37;;;4.90;;
14939;SDS011;11825;51.898;8.202;2022-07-22T07:02:06;5.97;;;5.03;;
14939;SDS011;11825;51.898;8.202;2022-07-22T07:07:14;10.00;;;5.40;;
14939;SDS011;11825;51.898;8.202;2022-07-22T07:12:19;8.23;;;4.77;;
14939;SDS011;11825;51.898;8.202;2022-07-22T07:17:22;6.77;;;5.60;;
14939;SDS011;11825;51.898;8.202;2022-07-22T07:22:25;11.37;;;5.93;;
14939;SDS011;11825;51.898;8.202;2022-07-22T07:27:27;8.13;;;6.43;;
14939;SDS011;11825;51.898;8.202;2022-07-22T07:32:29;8.20;;;5.77;;
14939;SDS011;11825;51.898;8.202;2022-07-22T07:37:31;9.53;;;6.73;;
14939;SDS011;11825;51.898;8.202;2022-07-22T07:42:33;8.83;;;6.73;;
14939;SDS011;11825;51.898;8.202;2022-07-22T07:47:39;12.80;;;7.63;;
14939;SDS011;11825;51.898;8.202;2022-07-22T07:52:42;10.37;;;7.40;;
14939;SDS011;11825;51.898;8.202;2022-07-22T07:57:53;7.33;;;6.23;;
14939;SDS011;11825;51.898;8.202;2022-07-22T08:02:55;7.50;;;6.10;;
14939;SDS011;11825;51.898;8.202;2022-07-22T08:07:59;7.70;;;5.50;;
14939;SDS011;11825;51.898;8.202;2022-07-22T08:13:01;7.47;;;4.13;;
14939;SDS011;11825;51.898;8.202;2022-07-22T08:18:03;9.57;;;4.80;;
14939;SDS011;11825;51.898;8.202;2022-07-22T08:23:05;5.70;;;4.30;;
14939;SDS011;11825;51.898;8.202;2022-07-22T08:28:07;7.00;;;4.07;;
14939;SDS011;11825;51.898;8.202;2022-07-22T08:33:09;6.57;;;4.57;;
14939;SDS011;11825;51.898;8.202;2022-07-22T08:38:11;5.00;;;2.97;;
14939;SDS011;11825;51.898;8.202;2022-07-22T08:43:13;5.23;;;2.70;;
14939;SDS011;11825;51.898;8.202;2022-07-22T08:48:15;6.80;;;3.67;;
14939;SDS011;11825;51.898;8.202;2022-07-22T08:53:17;6.10;;;3.20;;
14939;SDS011;11825;51.898;8.202;2022-07-22T08:58:19;15.00;;;5.53;;
14939;SDS011;11825;51.898;8.202;2022-07-22T09:03:23;3.13;;;2.53;;
14939;SDS011;11825;51.898;8.202;2022-07-22T09:08:28;3.93;;;2.73;;
14939;SDS011;11825;51.898;8.202;2022-07-22T09:13:30;5.90;;;2.53;;
14939;SDS011;11825;51.898;8.202;2022-07-22T09:18:47;5.33;;;2.97;;
14939;SDS011;11825;51.898;8.202;2022-07-22T09:23:50;5.63;;;2.47;;
14939;SDS011;11825;51.898;8.202;2022-07-22T09:28:56;6.00;;;3.23;;
14939;SDS011;11825;51.898;8.202;2022-07-22T09:34:01;10.57;;;3.47;;
14939;SDS011;11825;51.898;8.202;2022-07-22T09:39:24;7.13;;;2.87;;
14939;SDS011;11825;51.898;8.202;2022-07-22T09:44:30;31.07;;;7.27;;
14939;SDS011;11825;51.898;8.202;2022-07-22T09:49:36;3.37;;;1.67;;
14939;SDS011;11825;51.898;8.202;2022-07-22T09:54:41;5.30;;;2.67;;
14939;SDS011;11825;51.898;8.202;2022-07-22T09:59:43;2.83;;;2.33;;
14939;SDS011;11825;51.898;8.202;2022-07-22T10:04:45;3.07;;;1.70;;
14939;SDS011;11825;51.898;8.202;2022-07-22T10:09:47;1.63;;;1.53;;
14939;SDS011;11825;51.898;8.202;2022-07-22T10:14:50;2.67;;;2.27;;
14939;SDS011;11825;51.898;8.202;2022-07-22T10:19:52;3.43;;;1.80;;
14939;SDS011;11825;51.898;8.202;2022-07-22T10:25:00;2.30;;;2.03;;
14939;SDS011;11825;51.898;8.202;2022-07-22T10:30:02;1.63;;;1.53;;
14939;SDS011;11825;51.898;8.202;2022-07-22T10:45:15;5.13;;;2.60;;
14939;SDS011;11825;51.898;8.202;2022-07-22T10:55:58;8.13;;;2.93;;
14939;SDS011;11825;51.898;8.202;2022-07-22T11:01:06;4.20;;;2.53;;
14939;SDS011;11825;51.898;8.202;2022-07-22T11:06:25;5.50;;;2.23;;
14939;SDS011;11825;51.898;8.202;2022-07-22T11:16:40;3.30;;;2.67;;
14939;SDS011;11825;51.898;8.202;2022-07-22T11:21:42;2.93;;;2.57;;
14939;SDS011;11825;51.898;8.202;2022-07-22T11:26:50;7.20;;;2.60;;
14939;SDS011;11825;51.898;8.202;2022-07-22T11:31:54;2.77;;;2.53;;
14939;SDS011;11825;51.898;8.202;2022-07-22T11:36:57;6.40;;;2.30;;
14939;SDS011;11825;51.898;8.202;2022-07-22T11:41:59;4.90;;;2.40;;
14939;SDS011;11825;51.898;8.202;2022-07-22T11:47:02;6.63;;;3.33;;
14939;SDS011;11825;51.898;8.202;2022-07-22T11:52:09;5.03;;;3.03;;
14939;SDS011;11825;51.898;8.202;2022-07-22T11:57:14;3.43;;;2.67;;
14939;SDS011;11825;51.898;8.202;2022-07-22T12:02:16;4.43;;;3.23;;
14939;SDS011;11825;51.898;8.202;2022-07-22T12:07:18;4.10;;;3.23;;
14939;SDS011;11825;51.898;8.202;2022-07-22T12:12:20;6.97;;;3.93;;
14939;SDS011;11825;51.898;8.202;2022-07-22T12:17:40;4.57;;;3.20;;
14939;SDS011;11825;51.898;8.202;2022-07-22T12:22:45;3.43;;;3.13;;
14939;SDS011;11825;51.898;8.202;2022-07-22T12:28:00;7.17;;;3.00;;
14939;SDS011;11825;51.898;8.202;2022-07-22T12:33:03;5.30;;;3.83;;
14939;SDS011;11825;51.898;8.202;2022-07-22T12:38:06;4.73;;;4.10;;
14939;SDS011;11825;51.898;8.202;2022-07-22T12:43:08;5.47;;;3.90;;
14939;SDS011;11825;51.898;8.202;2022-07-22T12:48:10;5.47;;;3.80;;
14939;SDS011;11825;51.898;8.202;2022-07-22T12:53:14;5.40;;;3.30;;
14939;SDS011;11825;51.898;8.202;2022-07-22T12:58:19;5.27;;;3.67;;
14939;SDS011;11825;51.898;8.202;2022-07-22T13:03:26;6.40;;;3.80;;
14939;SDS011;11825;51.898;8.202;2022-07-22T13:08:29;3.90;;;3.57;;
14939;SDS011;11825;51.898;8.202;2022-07-22T13:13:45;7.13;;;3.93;;
14939;SDS011;11825;51.898;8.202;2022-07-22T13:18:51;4.77;;;4.17;;
14939;SDS011;11825;51.898;8.202;2022-07-22T13:23:53;8.47;;;5.53;;
14939;SDS011;11825;51.898;8.202;2022-07-22T13:28:55;6.20;;;4.67;;
14939;SDS011;11825;51.898;8.202;2022-07-22T13:33:57;6.47;;;4.47;;
14939;SDS011;11825;51.898;8.202;2022-07-22T13:39:01;4.00;;;3.70;;
14939;SDS011;11825;51.898;8.202;2022-07-22T13:44:05;6.80;;;5.27;;
14939;SDS011;11825;51.898;8.202;2022-07-22T13:49:11;4.87;;;4.40;;
14939;SDS011;11825;51.898;8.202;2022-07-22T13:54:13;4.57;;;4.07;;
14939;SDS011;11825;51.898;8.202;2022-07-22T13:59:15;4.47;;;3.87;;
14939;SDS011;11825;51.898;8.202;2022-07-22T14:04:18;5.27;;;4.20;;
14939;SDS011;11825;51.898;8.202;2022-07-22T14:09:20;3.90;;;3.53;;
14939;SDS011;11825;51.898;8.202;2022-07-22T14:14:37;7.77;;;5.57;;
14939;SDS011;11825;51.898;8.202;2022-07-22T14:19:41;6.27;;;3.70;;
14939;SDS011;11825;51.898;8.202;2022-07-22T14:24:43;5.07;;;3.83;;
14939;SDS011;11825;51.898;8.202;2022-07-22T14:29:45;3.93;;;3.53;;
14939;SDS011;11825;51.898;8.202;2022-07-22T14:34:47;4.50;;;3.90;;
14939;SDS011;11825;51.898;8.202;2022-07-22T14:39:52;4.93;;;3.10;;
14939;SDS011;11825;51.898;8.202;2022-07-22T14:45:04;5.67;;;5.03;;
14939;SDS011;11825;51.898;8.202;2022-07-22T14:50:15;4.77;;;4.37;;
14939;SDS011;11825;51.898;8.202;2022-07-22T14:55:17;6.50;;;4.40;;
14939;SDS011;11825;51.898;8.202;2022-07-22T15:00:26;4.67;;;3.40;;
14939;SDS011;11825;51.898;8.202;2022-07-22T15:05:28;4.70;;;4.10;;
14939;SDS011;11825;51.898;8.202;2022-07-22T15:10:30;4.13;;;3.67;;
14939;SDS011;11825;51.898;8.202;2022-07-22T15:15:32;4.73;;;3.33;;
14939;SDS011;11825;51.898;8.202;2022-07-22T15:20:36;6.13;;;3.77;;
14939;SDS011;11825;51.898;8.202;2022-07-22T15:25:38;3.90;;;3.43;;
14939;SDS011;11825;51.898;8.202;2022-07-22T15:30:43;3.40;;;2.93;;
14939;SDS011;11825;51.898;8.202;2022-07-22T15:35:46;6.53;;;3.77;;
14939;SDS011;11825;51.898;8.202;2022-07-22T15:40:48;4.27;;;3.17;;
14939;SDS011;11825;51.898;8.202;2022-07-22T15:45:50;5.37;;;3.23;;
14939;SDS011;11825;51.898;8.202;2022-07-22T15:50:53;3.93;;;3.53;;
14939;SDS011;11825;51.898;8.202;2022-07-22T15:56:03;3.23;;;2.93;;
14939;SDS011;11825;51.898;8.202;2022-07-22T16:01:06;6.50;;;4.43;;
14939;SDS011;11825;51.898;8.202;2022-07-22T16:06:08;4.13;;;3.73;;
14939;SDS011;11825;51.898;8.202;2022-07-22T16:11:10;5.57;;;3.80;;
14939;SDS011;11825;51.898;8.202;2022-07-22T16:16:12;6.27;;;3.97;;
14939;SDS011;11825;51.898;8.202;2022-07-22T16:21:15;9.73;;;3.37;;
14939;SDS011;11825;51.898;8.202;2022-07-22T16:26:17;5.60;;;3.67;;
14939;SDS011;11825;51.898;8.202;2022-07-22T16:31:18;6.63;;;3.90;;
14939;SDS011;11825;51.898;8.202;2022-07-22T16:36:24;4.67;;;4.00;;
14939;SDS011;11825;51.898;8.202;2022-07-22T16:41:25;5.33;;;4.27;;
14939;SDS011;11825;51.898;8.202;2022-07-22T16:46:27;5.83;;;3.83;;
14939;SDS011;11825;51.898;8.202;2022-07-22T16:51:29;4.57;;;3.87;;
14939;SDS011;11825;51.898;8.202;2022-07-22T16:56:31;4.53;;;4.03;;
14939;SDS011;11825;51.898;8.202;2022-07-22T17:01:33;6.83;;;4.83;;
14939;SDS011;11825;51.898;8.202;2022-07-22T17:06:35;5.57;;;4.30;;
14939;SDS011;11825;51.898;8.202;2022-07-22T17:11:37;6.03;;;4.43;;
14939;SDS011;11825;51.898;8.202;2022-07-22T17:16:39;4.40;;;3.77;;
14939;SDS011;11825;51.898;8.202;2022-07-22T17:21:41;3.90;;;3.53;;
14939;SDS011;11825;51.898;8.202;2022-07-22T17:26:43;7.33;;;5.03;;
14939;SDS011;11825;51.898;8.202;2022-07-22T17:31:45;5.63;;;4.80;;
14939;SDS011;11825;51.898;8.202;2022-07-22T17:36:47;7.50;;;4.63;;
14939;SDS011;11825;51.898;8.202;2022-07-22T17:41:49;6.20;;;4.47;;
14939;SDS011;11825;51.898;8.202;2022-07-22T17:47:00;4.67;;;3.97;;
14939;SDS011;11825;51.898;8.202;2022-07-22T17:52:02;4.10;;;3.60;;
14939;SDS011;11825;51.898;8.202;2022-07-22T17:57:04;4.20;;;3.80;;
14939;SDS011;11825;51.898;8.202;2022-07-22T18:02:06;4.90;;;4.33;;
14939;SDS011;11825;51.898;8.202;2022-07-22T18:07:10;3.70;;;3.40;;
14939;SDS011;11825;51.898;8.202;2022-07-22T18:12:17;4.10;;;3.50;;
14939;SDS011;11825;51.898;8.202;2022-07-22T18:17:19;8.30;;;4.33;;
14939;SDS011;11825;51.898;8.202;2022-07-22T18:22:23;5.73;;;4.90;;
14939;SDS011;11825;51.898;8.202;2022-07-22T18:27:25;10.37;;;4.20;;
14939;SDS011;11825;51.898;8.202;2022-07-22T18:32:31;4.27;;;3.87;;
14939;SDS011;11825;51.898;8.202;2022-07-22T18:37:33;4.77;;;3.83;;
14939;SDS011;11825;51.898;8.202;2022-07-22T18:42:35;6.07;;;4.20;;
14939;SDS011;11825;51.898;8.202;2022-07-22T18:47:36;4.70;;;4.23;;
14939;SDS011;11825;51.898;8.202;2022-07-22T18:52:38;5.60;;;3.33;;
14939;SDS011;11825;51.898;8.202;2022-07-22T18:57:40;4.13;;;3.70;;
14939;SDS011;11825;51.898;8.202;2022-07-22T19:02:42;4.20;;;3.80;;
14939;SDS011;11825;51.898;8.202;2022-07-22T19:07:44;4.20;;;3.80;;
14939;SDS011;11825;51.898;8.202;2022-07-22T19:12:46;6.50;;;4.00;;
14939;SDS011;11825;51.898;8.202;2022-07-22T19:17:48;6.13;;;3.23;;
14939;SDS011;11825;51.898;8.202;2022-07-22T19:23:00;3.97;;;3.67;;
14939;SDS011;11825;51.898;8.202;2022-07-22T19:47:36;5.27;;;4.63;;
14939;SDS011;11825;51.898;8.202;2022-07-22T20:00:27;5.23;;;4.63;;
14939;SDS011;11825;51.898;8.202;2022-07-22T20:05:32;4.80;;;4.37;;
14939;SDS011;11825;51.898;8.202;2022-07-22T20:10:42;6.67;;;3.87;;
14939;SDS011;11825;51.898;8.202;2022-07-22T20:16:25;7.07;;;4.43;;
14939;SDS011;11825;51.898;8.202;2022-07-22T20:21:32;4.87;;;4.00;;
14939;SDS011;11825;51.898;8.202;2022-07-22T20:27:01;7.10;;;5.33;;
14939;SDS011;11825;51.898;8.202;2022-07-22T20:32:15;5.83;;;4.67;;
14939;SDS011;11825;51.898;8.202;2022-07-22T20:37:18;7.53;;;4.37;;
14939;SDS011;11825;51.898;8.202;2022-07-22T20:42:20;5.83;;;3.93;;
14939;SDS011;11825;51.898;8.202;2022-07-22T20:47:31;6.80;;;4.30;;
14939;SDS011;11825;51.898;8.202;2022-07-22T20:52:33;4.47;;;4.07;;
14939;SDS011;11825;51.898;8.202;2022-07-22T20:57:35;7.53;;;4.50;;
14939;SDS011;11825;51.898;8.202;2022-07-22T21:02:37;6.63;;;5.93;;
14939;SDS011;11825;51.898;8.202;2022-07-22T21:07:40;5.87;;;4.87;;
14939;SDS011;11825;51.898;8.202;2022-07-22T21:12:42;6.80;;;4.87;;
14939;SDS011;11825;51.898;8.202;2022-07-22T21:17:43;6.30;;;4.73;;
14939;SDS011;11825;51.898;8.202;2022-07-22T21:22:46;5.40;;;4.47;;
14939;SDS011;11825;51.898;8.202;2022-07-22T21:27:48;6.70;;;5.27;;
14939;SDS011;11825;51.898;8.202;2022-07-22T21:32:52;6.97;;;6.27;;
14939;SDS011;11825;51.898;8.202;2022-07-22T21:38:01;7.13;;;5.10;;
14939;SDS011;11825;51.898;8.202;2022-07-22T21:44:06;9.17;;;4.97;;
14939;SDS011;11825;51.898;8.202;2022-07-22T21:49:32;8.37;;;6.20;;
14939;SDS011;11825;51.898;8.202;2022-07-22T21:54:33;7.73;;;5.37;;
14939;SDS011;11825;51.898;8.202;2022-07-22T21:59:35;8.57;;;4.70;;
14939;SDS011;11825;51.898;8.202;2022-07-22T22:04:37;10.47;;;6.63;;
14939;SDS011;11825;51.898;8.202;2022-07-22T22:09:40;8.97;;;5.20;;
14939;SDS011;11825;51.898;8.202;2022-07-22T22:14:42;6.53;;;5.03;;
14939;SDS011;11825;51.898;8.202;2022-07-22T22:19:44;6.80;;;5.73;;
14939;SDS011;11825;51.898;8.202;2022-07-22T22:24:46;7.13;;;5.90;;
14939;SDS011;11825;51.898;8.202;2022-07-22T22:29:47;8.00;;;7.20;;
14939;SDS011;11825;51.898;8.202;2022-07-22T22:34:49;8.97;;;6.43;;
14939;SDS011;11825;51.898;8.202;2022-07-22T22:39:51;6.60;;;6.00;;
14939;SDS011;11825;51.898;8.202;2022-07-22T22:44:53;6.27;;;5.67;;
14939;SDS011;11825;51.898;8.202;2022-07-22T22:49:54;9.53;;;7.17;;
14939;SDS011;11825;51.898;8.202;2022-07-22T22:54:56;9.30;;;6.63;;
14939;SDS011;11825;51.898;8.202;2022-07-22T22:59:58;9.10;;;7.50;;
14939;SDS011;11825;51.898;8.202;2022-07-22T23:05:00;9.17;;;8.37;;
14939;SDS011;11825;51.898;8.202;2022-07-22T23:10:02;7.10;;;6.40;;
14939;SDS011;11825;51.898;8.202;2022-07-22T23:15:05;7.27;;;6.57;;
14939;SDS011;11825;51.898;8.202;2022-07-22T23:20:08;6.77;;;6.17;;
14939;SDS011;11825;51.898;8.202;2022-07-22T23:25:11;8.77;;;7.03;;
14939;SDS011;11825;51.898;8.202;2022-07-22T23:30:12;8.97;;;5.10;;
14939;SDS011;11825;51.898;8.202;2022-07-22T23:35:14;6.93;;;6.20;;
14939;SDS011;11825;51.898;8.202;2022-07-22T23:40:16;7.37;;;6.60;;
14939;SDS011;11825;51.898;8.202;2022-07-22T23:45:18;8.50;;;7.70;;
14939;SDS011;11825;51.898;8.202;2022-07-22T23:50:20;8.53;;;7.37;;
14939;SDS011;11825;51.898;8.202;2022-07-22T23:55:21;7.40;;;6.70;;
